Mount Pleasant, Pennsylvania
Current Conditions -  °F | °C
As of 3:15 AM on Monday 24 Nov 2014 (Local Time) from KLBE Reporting Station
Broken Clouds Broken Clouds  
Wind Chill: 59°   Ceiling: 5000
Heat Index: 59°   Visibility: 10mi
Dew Point: 52°   Wind: 10mph
Humidity: 77%   Direction: 160°SSE
Pressure: 29.45"   Gusts: NA
Location:  40.15°N, 79.54°W
Report Text: KLBE 240815Z AUTO 16009KT 10SM BKN050 BKN075 15/11 A2945 RMK AO2
Loading
Personal Weather Stations






























Interactive Weather Map New forecast layout! Learn more

10-Day Weather Forecast

Advertisements
Track Severe Weather on mobile